x

Freeport, Tx - 60 Nm South Of Freeport, Tx (42019) Wave Buoy

4:50pm - Thu 27th Apr 2017 All times are CDT. -5 hours from GMT.

  • Sig Wave height 4.3ft
  • Swell Direction
  • Peak Period 6s
  • Average Period 5s
  • Wind
    16mph, 18mph gusts
  • Sea Temp 76°f
  • Air Temp 74°f
  • Sea Pressure 1005.6mb
  • Freeport, Tx - 60 Nm South Of Freeport, Tx
  • Freeport, Tx - 60 Nm South Of Freeport, Tx

More Historic Weather Station data

Upgrade to MSW Pro to gain access to the past 30 days of data for over 8000 Wavebouys and Weather Stations around the globe.

Join Pro

Comparision Forecast

View Surf forecast
   
Thu 04/27 4:50pm 4.5ft 6s 5s 16 18 mph 1005.6mb 76f 74f
3:50pm 4ft 7s 5s 16 18 mph 1006.3mb 76f 73f
2:50pm 4.5ft 6s 5s 16 18 mph 1006.7mb 76f 73f
1:50pm 4.5ft 6s 5s 16 18 mph 1007.4mb 76f 72f
12:50pm 4.5ft 6s 5s 16 18 mph 1008.3mb 76f 72f
11:50am 5ft 6s 5s 16 20 mph 1009.1mb 76f 71f
10:50am 5ft 7s 5s 16 18 mph 1009.5mb 76f 71f
9:50am 5.5ft 7s 5s 16 18 mph 1009.5mb 76f 70f
8:50am 6ft 7s 5s 20 25 mph 1009mb 76f 70f
7:50am 6ft 7s 5s 22 27 mph 1008.1mb 76f 69f
6:50am 6ft 7s 5s 22 27 mph 1008mb 76f 69f
5:50am 6.5ft 7s 5s 22 25 mph 1007.7mb 76f 70f
4:50am 6ft 6s 5s 22 27 mph 1007.3mb 76f 71f
3:50am 6.5ft 5s 5s 22 27 mph 1007mb 76f 72f
2:50am 6ft 7s 5s 22 27 mph 1006.8mb 76f 73f
1:50am 6ft 7s 5s 27 31 mph 1006.2mb 76f 74f
12:50am 5ft 8s 5s 31 36 mph 1005.3mb 76f 74f
Wed 04/26 11:50pm 5.5ft 8s 6s 4 7 mph 1005.7mb 76f 76f
10:50pm 5ft 8s 6s 2 4 mph 1005.4mb 76f 76f
9:50pm 6ft 8s 6s 2 4 mph 1004.1mb 76f 76f
8:50pm 5.5ft 8s 6s 4 7 mph 1002.8mb 76f 76f
6:50pm 6.5ft 8s 6s 4 7 mph 1001mb 76f 77f
5:50pm 7ft 8s 6s 7
mph
1000.9mb 77f 77f
4:50pm 6ft 8s 6s 4 7 mph 1000.8mb 76f 77f
3:50pm 6.5ft 8s 6s 7
mph
1001.2mb 76f 77f
2:50pm 7ft 8s 6s 7 11 mph 1001.4mb 76f 77f
1:50pm 7ft 8s 6s 7 9 mph 1001.3mb 76f 77f
12:50pm 7ft 8s 6s 7 9 mph 1001.7mb 76f 77f
11:50am 7ft 8s 6s 11 16 mph 1001.5mb 76f 77f
10:50am 8ft 8s 6s 20 25 mph 1000.1mb 76f 77f
9:50am 7.5ft 8s 6s 18 25 mph 1000.3mb 76f 77f
8:50am 8ft 8s 6s 25 29 mph 999.3mb 76f 77f
7:50am 8ft 8s 6s 22 27 mph 999.4mb 76f 76f
6:50am 8ft 8s 6s 22 27 mph 999.4mb 76f 76f
4:50am 7.5ft 8s 6s 22 25 mph 999.6mb 76f 77f
3:50am 7ft 8s 6s 22 27 mph 1000.1mb 76f 77f
2:50am 7ft 8s 6s 22 27 mph 1000.4mb 76f 77f
1:50am 7ft 8s 5s 22 27 mph 1000.6mb 76f 77f
12:50am 7ft 8s 6s 25 31 mph 1001.5mb 76f 77f
Tue 04/25 11:50pm 7ft 7s 6s 22 25 mph 1002.2mb 76f 77f
10:50pm 7ft 7s 6s 22 25 mph 1002.3mb 76f 77f
9:50pm 6ft 7s 5s 20 25 mph 1002.1mb 76f 77f
8:50pm 6ft 7s 5s 22 27 mph 1001.8mb 76f 77f
7:50pm 6ft 7s 5s 20 25 mph 1001.6mb 76f 77f
6:50pm 6ft 7s 5s 20 25 mph 1001.9mb 76f 77f
5:50pm 5ft 7s 5s 20 25 mph 1002.5mb 76f 77f
4:50pm 5ft 6s 5s 20 25 mph 1002.5mb 76f 77f
3:50pm 5.5ft 6s 5s 20 25 mph 1003.3mb 76f 77f
2:50pm 5ft 6s 5s 20 25 mph 1003.8mb 76f 76f
1:50pm 5ft 6s 5s 20 25 mph 1004.6mb 75f 76f
12:50pm 4.5ft 6s 5s 18 22 mph 1005.3mb 75f 76f
11:50am 4.5ft 6s 5s 18 22 mph 1006mb 75f 76f
10:50am 4.5ft 6s 5s 18 22 mph 1006.1mb 75f 76f
9:50am 4.5ft 6s 5s 20 25 mph 1005.8mb 75f 76f
8:50am 4.5ft 6s 5s 20 22 mph 1005.8mb 75f 75f
7:50am 4.5ft 6s 5s 20 25 mph 1005.5mb 75f 75f
6:50am 4ft 6s 5s 18 22 mph 1005.6mb 75f 75f
5:50am 3.5ft 5s  -  18 22 mph 1005.6mb 75f 74f
4:50am 3.5ft 5s 4s 18 20 mph 1005.8mb 75f 74f
3:50am 3.5ft 5s 4s 18 22 mph 1006.2mb 75f 74f
2:50am 3.5ft 5s 4s 18 20 mph 1007mb 75f 73f
1:50am 3.5ft 4s 4s 18 22 mph 1008mb 75f 73f
12:50am 3ft 4s 4s 20 22 mph 1008mb 75f 73f
Mon 04/24 11:50pm 2.5ft 3s 3s 20 25 mph 1008.2mb 75f 73f
10:50pm 1.6ft 3s 3s 18 22 mph 1008.6mb 75f 73f
9:50pm 1.3ft 3s 3s 16 18 mph 1009.1mb 75f 72f
8:50pm 1.3ft 3s 3s 13 16 mph 1009.4mb 75f 72f
7:50pm 1.3ft 7s 3s 11 16 mph 1009.7mb 76f 72f
6:50pm 1ft 4s 4s 9 13 mph 1010mb 76f 72f
5:50pm 1ft 7s 4s 9 11 mph 1010.5mb 76f 72f
4:50pm 1.3ft 5s 4s 9 11 mph 1010.8mb 76f 72f
3:50pm 1.3ft 4s 4s 7 9 mph 1011.4mb 77f 72f
2:50pm 1.3ft 4s 4s 7 9 mph 1012.5mb 77f 72f
1:50pm 1.3ft 5s 4s 4 7 mph 1013.2mb 77f 72f
12:50pm 1.6ft 5s 4s 4 7 mph 1014.1mb 76f 72f
11:50am 1.6ft 5s 4s  -  2 mph 1014.7mb 76f 72f
10:50am 1.6ft 4s 4s 2
mph
1015mb 76f 71f
9:50am 2ft 4s 4s  -  2 mph 1015.1mb 75f 72f
8:50am 2ft 4s 4s 2
mph
1015.1mb 75f 72f
6:50am 2.5ft 5s 4s 2 4 mph 1014.4mb 75f 70f
5:50am 2.5ft 5s 4s 2 4 mph 1014.2mb 75f 70f
4:50am 2.5ft 5s 4s 7 9 mph 1013.9mb 75f 70f
3:50am 2.5ft 4s 4s 7 9 mph 1014.5mb 75f 70f
2:50am 2.5ft 4s 4s 9 11 mph 1014.9mb 75f 71f
1:50am 2.5ft 4s 4s 9 13 mph 1015.5mb 76f 71f
12:50am 3ft 5s 4s 11 13 mph 1015.6mb 76f 71f
Sun 04/23 11:50pm 3.5ft 4s 4s 11 16 mph 1015.7mb 76f 71f